Time;durP1;ratioP1;P1;durP2;ratioP2;P2;SDS_P1;SDS_P2;PMS_P1;PMS_P2;Temp;Humidity;BMP_temperature;BMP_pressure;BME280_temperature;BME280_humidity;BME280_pressure;Samples;Min_cycle;Max_cycle;Signal;HPM_P1;HPM_P2
2022/03/13 00:01:46;;;;;;;;;;;;;;;;;;5057394;28;20029;-61
2022/03/13 00:04:13;;;;;;;111.45;48.97;;;;;;;;;;5056889;28;19926;-61
2022/03/13 00:06:39;;;;;;;101.25;45.03;;;;;;;;;;5055770;28;20040;-61
2022/03/13 00:09:05;;;;;;;93.43;43.25;;;;;;;;;;5056781;28;20104;-58
2022/03/13 00:11:31;;;;;;;89.25;40.75;;;;;;;;;;5055858;28;20406;-61
2022/03/13 00:13:57;;;;;;;91.05;40.78;;;;;;;;;;5056669;28;20028;-61
2022/03/13 00:16:23;;;;;;;88.82;41.83;;;;;;;;;;5055232;28;20024;-61
2022/03/13 00:18:48;;;;;;;91.45;41.85;;;;;;;;;;5056702;28;20021;-61
2022/03/13 00:21:15;;;;;;;98.00;46.90;;;;;;;;;;5055135;28;20037;-61
2022/03/13 00:23:41;;;;;;;128.85;64.32;;;;;;;;;;5056515;28;20025;-61
2022/03/13 00:26:08;;;;;;;140.52;76.05;;;;;;;;;;5054485;28;20132;-60
2022/03/13 00:28:34;;;;;;;153.02;71.90;;;;;;;;;;5056062;28;20028;-61
2022/03/13 00:31:03;;;;;;;193.95;72.63;;;;;;;;;;5055961;28;20471;-61
2022/03/13 00:33:29;;;;;;;201.20;69.22;;;;;;;;;;5056223;28;20092;-61
2022/03/13 00:35:55;;;;;;;173.13;60.17;;;;;;;;;;5056140;28;20028;-61
2022/03/13 00:38:21;;;;;;;152.00;55.28;;;;;;;;;;5056244;28;20454;-61
2022/03/13 00:40:51;;;;;;;117.28;47.40;;;;;;;;;;5055169;28;20399;-61
2022/03/13 00:43:17;;;;;;;107.50;45.05;;;;;;;;;;5056317;28;20033;-61
2022/03/13 00:45:43;;;;;;;95.95;44.08;;;;;;;;;;5056295;28;20085;-61
2022/03/13 00:48:09;;;;;;;87.85;39.22;;;;;;;;;;5054914;28;20166;-62
2022/03/13 00:50:34;;;;;;;93.22;41.72;;;;;;;;;;5056167;28;20009;-61
2022/03/13 00:53:00;;;;;;;100.03;41.80;;;;;;;;;;5056308;28;20025;-61
2022/03/13 00:55:25;;;;;;;112.75;44.42;;;;;;;;;;5038255;28;20062;-61
2022/03/13 00:57:51;;;;;;;114.57;45.75;;;;;;;;;;5055862;28;20061;-61
2022/03/13 01:00:17;;;;;;;97.05;41.53;;;;;;;;;;5055670;28;20471;-61
2022/03/13 01:02:44;;;;;;;106.28;41.05;;;;;;;;;;5055841;28;20047;-61
2022/03/13 01:05:10;;;;;;;157.75;51.95;;;;;;;;;;5055836;28;20432;-61
2022/03/13 01:07:36;;;;;;;131.70;47.25;;;;;;;;;;5055008;28;20036;-61
2022/03/13 01:10:04;;;;;;;93.60;37.95;;;;;;;;;;5055654;28;20386;-61
2022/03/13 01:12:32;;;;;;;92.53;37.25;;;;;;;;;;5055668;28;20021;-61
2022/03/13 01:14:58;;;;;;;81.95;35.92;;;;;;;;;;5055690;28;20017;-61
2022/03/13 01:17:24;;;;;;;75.75;33.80;;;;;;;;;;5054412;28;20095;-61
2022/03/13 01:19:50;;;;;;;73.25;34.33;;;;;;;;;;5055121;28;20086;-60
2022/03/13 01:22:15;;;;;;;77.35;33.42;;;;;;;;;;5054152;28;20451;-61
2022/03/13 01:24:45;;;;;;;86.60;35.25;;;;;;;;;;5053431;28;20375;-61
2022/03/13 01:27:12;;;;;;;77.72;34.45;;;;;;;;;;5055503;28;20033;-61
2022/03/13 01:29:37;;;;;;;70.60;32.25;;;;;;;;;;5053916;28;20039;-61
2022/03/13 01:32:03;;;;;;;68.78;31.50;;;;;;;;;;5055086;28;20029;-61
2022/03/13 01:34:34;;;;;;;65.05;30.48;;;;;;;;;;5055165;28;20021;-62
2022/03/13 01:37:04;;;;;;;71.55;31.98;;;;;;;;;;5055215;28;20025;-61
2022/03/13 01:39:29;;;;;;;67.32;31.40;;;;;;;;;;5055052;28;20025;-61
2022/03/13 01:41:56;;;;;;;65.45;31.33;;;;;;;;;;5054960;28;20033;-62
2022/03/13 01:44:21;;;;;;;74.60;32.78;;;;;;;;;;5054809;28;20036;-62
2022/03/13 01:46:47;;;;;;;74.30;32.72;;;;;;;;;;5054799;28;20032;-62
2022/03/13 01:49:16;;;;;;;69.20;30.73;;;;;;;;;;5054771;28;20107;-62
2022/03/13 01:51:41;;;;;;;64.82;30.58;;;;;;;;;;5055006;28;20039;-61
2022/03/13 01:54:08;;;;;;;66.15;30.88;;;;;;;;;;5054908;28;20017;-62
2022/03/13 01:56:34;;;;;;;71.03;31.42;;;;;;;;;;5054895;28;20047;-62
2022/03/13 01:59:00;;;;;;;67.35;31.70;;;;;;;;;;5054732;28;20016;-62
2022/03/13 02:01:34;;;;;;;64.88;32.45;;;;;;;;;;5054658;28;20033;-62
2022/03/13 02:04:06;;;;;;;68.95;31.58;;;;;;;;;;5054474;28;20029;-61
2022/03/13 02:06:42;;;;;;;65.22;30.27;;;;;;;;;;5054602;28;20021;-61
2022/03/13 02:09:12;;;;;;;66.90;30.80;;;;;;;;;;5053123;28;20123;-61
2022/03/13 02:11:40;;;;;;;67.70;31.05;;;;;;;;;;5054350;28;20052;-62
2022/03/13 02:14:07;;;;;;;63.97;30.08;;;;;;;;;;5054298;28;20055;-61
2022/03/13 02:16:33;;;;;;;59.03;29.05;;;;;;;;;;5054251;28;20013;-61
2022/03/13 02:18:59;;;;;;;63.60;28.65;;;;;;;;;;5053490;28;20045;-61
2022/03/13 02:21:27;;;;;;;61.47;29.35;;;;;;;;;;5053801;28;20025;-62
2022/03/13 02:23:59;;;;;;;58.78;28.00;;;;;;;;;;5053964;28;20459;-65
2022/03/13 02:26:24;;;;;;;63.55;28.40;;;;;;;;;;5054252;28;20044;-61
2022/03/13 02:28:51;;;;;;;56.95;26.90;;;;;;;;;;5054542;28;20031;-61
2022/03/13 02:31:19;;;;;;;56.95;26.55;;;;;;;;;;5052673;28;20025;-61
2022/03/13 02:33:44;;;;;;;59.45;27.13;;;;;;;;;;5053692;28;20013;-61
2022/03/13 02:36:31;;;;;;;56.63;27.10;;;;;;;;;;5053951;28;20167;-61
2022/03/13 02:39:00;;;;;;;61.40;28.52;;;;;;;;;;5053965;28;20040;-61
2022/03/13 02:41:28;;;;;;;57.50;26.63;;;;;;;;;;5052800;28;20029;-61
2022/03/13 02:43:54;;;;;;;56.03;27.27;;;;;;;;;;5053765;28;20032;-61
2022/03/13 02:46:21;;;;;;;60.75;28.45;;;;;;;;;;5052787;28;20021;-61
2022/03/13 02:48:47;;;;;;;58.53;28.95;;;;;;;;;;5053856;28;20029;-61
2022/03/13 02:51:13;;;;;;;57.25;27.33;;;;;;;;;;5053917;28;20008;-61
2022/03/13 02:53:38;;;;;;;64.43;28.92;;;;;;;;;;5052491;28;20033;-61
2022/03/13 02:56:05;;;;;;;56.78;28.15;;;;;;;;;;5053811;28;20151;-61
2022/03/13 02:58:31;;;;;;;59.67;28.63;;;;;;;;;;5053766;28;20043;-61
2022/03/13 03:00:57;;;;;;;62.35;29.63;;;;;;;;;;5053571;28;20103;-61
2022/03/13 03:03:23;;;;;;;64.72;30.42;;;;;;;;;;5053679;28;20041;-61
2022/03/13 03:05:50;;;;;;;58.75;28.17;;;;;;;;;;5053826;28;20025;-61
2022/03/13 03:08:16;;;;;;;60.33;27.30;;;;;;;;;;5052724;28;20032;-61
2022/03/13 03:10:41;;;;;;;58.75;27.60;;;;;;;;;;5053571;28;20012;-62
2022/03/13 03:13:10;;;;;;;52.20;25.63;;;;;;;;;;5053473;28;20029;-61
2022/03/13 03:15:36;;;;;;;62.63;29.15;;;;;;;;;;5053345;28;20016;-62
2022/03/13 03:18:03;;;;;;;63.88;28.80;;;;;;;;;;5053611;28;20083;-61
2022/03/13 03:20:28;;;;;;;52.42;26.25;;;;;;;;;;5053374;28;20029;-61
2022/03/13 03:22:54;;;;;;;53.53;26.80;;;;;;;;;;5053530;28;20425;-61
2022/03/13 03:25:24;;;;;;;56.40;29.00;;;;;;;;;;5052652;28;20049;-61
2022/03/13 03:27:50;;;;;;;55.13;27.05;;;;;;;;;;5052057;28;20072;-62
2022/03/13 03:30:19;;;;;;;55.28;27.23;;;;;;;;;;5055573;28;20024;-62
2022/03/13 03:32:45;;;;;;;51.03;25.30;;;;;;;;;;5059859;28;20032;-61
2022/03/13 03:35:10;;;;;;;55.25;24.98;;;;;;;;;;5059743;28;20394;-61
2022/03/13 03:37:36;;;;;;;54.83;26.55;;;;;;;;;;5060095;28;20486;-61
2022/03/13 03:40:02;;;;;;;54.05;26.98;;;;;;;;;;5059871;28;20107;-61
2022/03/13 03:42:27;;;;;;;53.15;25.92;;;;;;;;;;5059641;28;20059;-61
2022/03/13 03:44:53;;;;;;;57.22;26.60;;;;;;;;;;5059980;28;20100;-61
2022/03/13 03:47:19;;;;;;;53.95;26.15;;;;;;;;;;5059987;28;20364;-61
2022/03/13 03:49:47;;;;;;;50.30;25.13;;;;;;;;;;5058435;28;20052;-61
2022/03/13 03:52:13;;;;;;;52.58;25.63;;;;;;;;;;5059894;28;20028;-61
2022/03/13 03:54:38;;;;;;;54.42;26.38;;;;;;;;;;5060096;28;20021;-61
2022/03/13 03:57:04;;;;;;;52.75;24.05;;;;;;;;;;5042125;28;20040;-61
2022/03/13 03:59:30;;;;;;;45.60;23.05;;;;;;;;;;5059913;28;20021;-61
2022/03/13 04:01:56;;;;;;;46.25;20.90;;;;;;;;;;5060020;28;20037;-61
2022/03/13 04:04:21;;;;;;;44.22;21.13;;;;;;;;;;5059766;28;20433;-61
2022/03/13 04:06:47;;;;;;;40.47;19.95;;;;;;;;;;5060120;28;20036;-60
2022/03/13 04:09:13;;;;;;;35.85;18.90;;;;;;;;;;5059992;28;20032;-61
2022/03/13 04:11:38;;;;;;;35.95;18.60;;;;;;;;;;5058494;28;20029;-61
2022/03/13 04:14:04;;;;;;;37.67;18.17;;;;;;;;;;5059803;28;20066;-62
2022/03/13 04:16:30;;;;;;;35.33;18.40;;;;;;;;;;5058598;28;20387;-62
2022/03/13 04:18:56;;;;;;;40.38;19.65;;;;;;;;;;5059470;28;20025;-61
2022/03/13 04:21:25;;;;;;;36.72;19.35;;;;;;;;;;5059171;28;20479;-61
2022/03/13 04:23:51;;;;;;;42.22;20.02;;;;;;;;;;5059149;28;20455;-65
2022/03/13 04:26:16;;;;;;;41.13;19.50;;;;;;;;;;5059582;28;20056;-66
2022/03/13 04:28:42;;;;;;;34.40;19.33;;;;;;;;;;5058053;28;20112;-65
2022/03/13 04:31:08;;;;;;;38.13;18.70;;;;;;;;;;5059471;28;20037;-66
2022/03/13 04:33:36;;;;;;;34.97;18.15;;;;;;;;;;5059392;28;20029;-66
2022/03/13 04:36:03;;;;;;;33.88;19.17;;;;;;;;;;5059503;28;20056;-65
2022/03/13 04:38:28;;;;;;;40.67;20.40;;;;;;;;;;5059424;28;20028;-65
2022/03/13 04:40:55;;;;;;;37.92;19.27;;;;;;;;;;5059360;28;20029;-66
2022/03/13 04:43:21;;;;;;;33.88;18.30;;;;;;;;;;5055499;28;20493;-66
2022/03/13 04:45:48;;;;;;;37.17;19.08;;;;;;;;;;5056043;28;20399;-66
2022/03/13 04:48:13;;;;;;;37.40;19.65;;;;;;;;;;5038106;28;20020;-66
2022/03/13 04:50:39;;;;;;;31.15;17.67;;;;;;;;;;5055933;28;20119;-66
2022/03/13 04:53:06;;;;;;;37.85;20.75;;;;;;;;;;5055886;28;20013;-66
2022/03/13 04:55:32;;;;;;;247.27;130.48;;;;;;;;;;5056205;28;20045;-66
2022/03/13 04:57:57;;;;;;;199.70;124.38;;;;;;;;;;5055962;28;20035;-66
2022/03/13 05:00:24;;;;;;;176.38;129.68;;;;;;;;;;5055901;28;20091;-65
2022/03/13 05:02:50;;;;;;;66.97;44.30;;;;;;;;;;5055904;28;20013;-66
2022/03/13 05:05:15;;;;;;;43.63;25.98;;;;;;;;;;5054542;28;20375;-66
2022/03/13 05:07:41;;;;;;;48.72;29.00;;;;;;;;;;5054283;28;20032;-66
2022/03/13 05:10:07;;;;;;;43.08;23.70;;;;;;;;;;5055916;28;20044;-66
2022/03/13 05:12:33;;;;;;;42.47;22.20;;;;;;;;;;5055684;28;20017;-66
2022/03/13 05:14:58;;;;;;;37.00;19.90;;;;;;;;;;5055445;28;20025;-66
2022/03/13 05:17:25;;;;;;;36.30;20.77;;;;;;;;;;5055640;28;20363;-66
2022/03/13 05:19:50;;;;;;;28.88;17.52;;;;;;;;;;5055697;28;20041;-66
2022/03/13 05:22:16;;;;;;;30.52;19.85;;;;;;;;;;5055346;28;20409;-65
2022/03/13 05:24:42;;;;;;;38.13;26.25;;;;;;;;;;5054972;28;20099;-61
2022/03/13 05:27:08;;;;;;;58.72;41.78;;;;;;;;;;5054118;28;20041;-61
2022/03/13 05:29:34;;;;;;;39.17;23.58;;;;;;;;;;5055460;28;20024;-61
2022/03/13 05:31:59;;;;;;;42.45;28.85;;;;;;;;;;5055351;28;20025;-62
2022/03/13 05:34:25;;;;;;;33.80;20.67;;;;;;;;;;5055231;28;20070;-61
2022/03/13 05:36:50;;;;;;;38.90;26.00;;;;;;;;;;5055209;28;20061;-62
2022/03/13 05:39:16;;;;;;;33.78;20.75;;;;;;;;;;5055438;28;20444;-61
2022/03/13 05:41:42;;;;;;;31.20;20.73;;;;;;;;;;5054961;28;20029;-61
2022/03/13 05:44:13;;;;;;;32.20;17.30;;;;;;;;;;5054074;28;20070;-62
2022/03/13 05:46:38;;;;;;;32.20;17.65;;;;;;;;;;5055000;28;20108;-62
2022/03/13 05:49:04;;;;;;;35.88;20.20;;;;;;;;;;5054797;28;20108;-61
2022/03/13 05:51:36;;;;;;;36.90;20.48;;;;;;;;;;5055049;28;20036;-61
2022/03/13 05:54:02;;;;;;;37.35;20.90;;;;;;;;;;5053417;28;20033;-61
2022/03/13 05:56:28;;;;;;;36.83;19.65;;;;;;;;;;5054760;28;20028;-61
2022/03/13 05:58:53;;;;;;;38.92;21.83;;;;;;;;;;5054517;28;20039;-61
2022/03/13 06:01:18;;;;;;;33.83;18.63;;;;;;;;;;5054251;28;20021;-61
2022/03/13 06:03:44;;;;;;;31.08;16.77;;;;;;;;;;5054297;28;20494;-61
2022/03/13 06:06:09;;;;;;;37.00;20.88;;;;;;;;;;5054252;28;20028;-60
2022/03/13 06:08:36;;;;;;;77.30;50.72;;;;;;;;;;5054124;28;20057;-61
2022/03/13 06:11:01;;;;;;;37.75;21.17;;;;;;;;;;5054042;28;20021;-61
2022/03/13 06:13:28;;;;;;;56.17;34.78;;;;;;;;;;5053989;28;20039;-62
2022/03/13 06:15:53;;;;;;;74.28;49.78;;;;;;;;;;5053810;28;20360;-62
2022/03/13 06:18:20;;;;;;;39.53;25.98;;;;;;;;;;5053878;28;20086;-62
2022/03/13 06:20:46;;;;;;;38.92;21.42;;;;;;;;;;5053753;28;20017;-61
2022/03/13 06:23:13;;;;;;;55.63;27.92;;;;;;;;;;5053665;28;20052;-61
2022/03/13 06:25:39;;;;;;;52.17;25.60;;;;;;;;;;5053653;28;20049;-61
2022/03/13 06:28:05;;;;;;;58.70;29.98;;;;;;;;;;5053804;28;20459;-61
2022/03/13 06:30:31;;;;;;;61.45;32.53;;;;;;;;;;5053803;28;20021;-61
2022/03/13 06:36:31;;;;;;;61.50;29.08;;;;;;;;;;5054294;28;20028;-60
2022/03/13 06:38:58;;;;;;;64.70;32.55;;;;;;;;;;5053739;28;20081;-68
2022/03/13 06:41:25;;;;;;;61.65;33.58;;;;;;;;;;5053757;28;20024;-62
2022/03/13 06:43:51;;;;;;;77.93;40.22;;;;;;;;;;5053626;28;20037;-61
2022/03/13 06:46:16;;;;;;;67.53;35.83;;;;;;;;;;5053215;28;20032;-62
2022/03/13 06:48:42;;;;;;;70.85;37.80;;;;;;;;;;5053384;28;20041;-62
2022/03/13 06:51:09;;;;;;;52.60;26.85;;;;;;;;;;5053548;28;20427;-62
2022/03/13 06:53:35;;;;;;;48.08;25.27;;;;;;;;;;5053391;28;20106;-62
2022/03/13 06:56:00;;;;;;;74.15;36.67;;;;;;;;;;5053396;28;20017;-62
2022/03/13 06:58:26;;;;;;;73.47;36.80;;;;;;;;;;5053273;28;20059;-62
2022/03/13 07:00:52;;;;;;;70.18;35.88;;;;;;;;;;5053412;28;20017;-62
2022/03/13 07:03:17;;;;;;;72.95;37.13;;;;;;;;;;5053354;28;20572;-62
2022/03/13 07:05:42;;;;;;;77.78;37.70;;;;;;;;;;5052883;28;20095;-62
2022/03/13 07:08:08;;;;;;;74.07;39.45;;;;;;;;;;5053127;28;20040;-62
2022/03/13 07:10:33;;;;;;;73.53;37.67;;;;;;;;;;5053190;28;20024;-62
2022/03/13 07:12:59;;;;;;;73.05;37.35;;;;;;;;;;5051964;28;20051;-61
2022/03/13 07:15:26;;;;;;;70.88;41.10;;;;;;;;;;5052992;28;20448;-62
2022/03/13 07:17:52;;;;;;;73.85;41.47;;;;;;;;;;5053013;28;20087;-62
2022/03/13 07:20:18;;;;;;;65.82;37.22;;;;;;;;;;5052934;28;20426;-62
2022/03/13 07:22:45;;;;;;;64.53;35.75;;;;;;;;;;5052883;28;20033;-62
2022/03/13 07:25:10;;;;;;;61.13;31.40;;;;;;;;;;5052647;28;20040;-62
2022/03/13 07:27:39;;;;;;;51.15;25.33;;;;;;;;;;5052960;28;20399;-61
2022/03/13 07:30:08;;;;;;;49.47;25.30;;;;;;;;;;5052956;28;20483;-62
2022/03/13 07:32:34;;;;;;;34.85;17.70;;;;;;;;;;5052901;28;20027;-62
2022/03/13 07:34:59;;;;;;;45.35;24.63;;;;;;;;;;5052701;28;20378;-62
2022/03/13 07:37:26;;;;;;;36.38;22.90;;;;;;;;;;5052930;28;20029;-62
2022/03/13 07:39:52;;;;;;;41.28;24.45;;;;;;;;;;5052801;28;20479;-62
2022/03/13 07:42:17;;;;;;;38.38;23.73;;;;;;;;;;5052409;28;20090;-62
2022/03/13 07:44:43;;;;;;;39.45;23.95;;;;;;;;;;5052764;28;20033;-62
2022/03/13 07:47:08;;;;;;;26.90;17.25;;;;;;;;;;5052760;28;20029;-63
2022/03/13 07:49:34;;;;;;;25.38;15.00;;;;;;;;;;5052615;28;20021;-63
2022/03/13 07:51:59;;;;;;;25.77;15.18;;;;;;;;;;5052846;28;20099;-64
2022/03/13 07:54:25;;;;;;;26.85;15.25;;;;;;;;;;5052726;28;20418;-61
2022/03/13 07:56:50;;;;;;;38.20;20.48;;;;;;;;;;5052716;28;20108;-61
2022/03/13 07:59:16;;;;;;;29.70;18.88;;;;;;;;;;5052687;28;20383;-61
2022/03/13 08:01:41;;;;;;;25.95;15.73;;;;;;;;;;5052592;28;20086;-61
2022/03/13 08:04:08;;;;;;;42.38;26.90;;;;;;;;;;5052607;28;20025;-61
2022/03/13 08:06:35;;;;;;;23.42;14.75;;;;;;;;;;5052588;28;20025;-62
2022/03/13 08:09:01;;;;;;;22.15;14.32;;;;;;;;;;5052458;28;20024;-62
2022/03/13 08:11:27;;;;;;;156.77;73.85;;;;;;;;;;5052661;28;20029;-61
2022/03/13 08:13:53;;;;;;;34.13;21.50;;;;;;;;;;5052517;28;20082;-61
2022/03/13 08:16:18;;;;;;;20.65;12.70;;;;;;;;;;5052587;28;20025;-61
2022/03/13 08:18:44;;;;;;;21.23;13.98;;;;;;;;;;5054771;28;20526;-61
2022/03/13 08:21:10;;;;;;;17.85;10.50;;;;;;;;;;5056336;28;20143;-61
2022/03/13 08:23:35;;;;;;;17.80;13.43;;;;;;;;;;5056332;28;20027;-62
2022/03/13 08:26:01;;;;;;;17.50;10.95;;;;;;;;;;5055529;28;20053;-61
2022/03/13 08:28:26;;;;;;;30.98;22.15;;;;;;;;;;5055764;28;20047;-62
2022/03/13 08:30:52;;;;;;;21.23;12.00;;;;;;;;;;5055234;28;20032;-61
2022/03/13 08:33:18;;;;;;;18.80;11.05;;;;;;;;;;5055698;28;20021;-62
2022/03/13 08:35:43;;;;;;;20.10;12.35;;;;;;;;;;5056069;28;20524;-62
2022/03/13 08:38:08;;;;;;;21.15;12.80;;;;;;;;;;5055383;28;20540;-63
2022/03/13 08:40:34;;;;;;;18.40;10.25;;;;;;;;;;5055590;28;20060;-61
2022/03/13 08:42:59;;;;;;;23.48;11.75;;;;;;;;;;5054032;28;20119;-61
2022/03/13 08:45:25;;;;;;;21.40;13.75;;;;;;;;;;5055926;28;20466;-62
2022/03/13 08:47:51;;;;;;;20.88;11.23;;;;;;;;;;5055841;28;20029;-61
2022/03/13 08:50:17;;;;;;;14.05;8.60;;;;;;;;;;5055884;28;20072;-61
2022/03/13 08:52:42;;;;;;;12.50;7.57;;;;;;;;;;5054583;28;20021;-62
2022/03/13 08:55:13;;;;;;;12.52;8.30;;;;;;;;;;5055678;28;20029;-62
2022/03/13 08:57:41;;;;;;;15.00;8.18;;;;;;;;;;5055688;28;20063;-62
2022/03/13 09:00:08;;;;;;;15.82;7.80;;;;;;;;;;5055474;28;20021;-62
2022/03/13 09:02:34;;;;;;;13.50;8.65;;;;;;;;;;5055541;28;20032;-62
2022/03/13 09:04:59;;;;;;;14.80;8.40;;;;;;;;;;5055446;28;20026;-62
2022/03/13 09:07:25;;;;;;;13.07;7.82;;;;;;;;;;5055533;28;20053;-62
2022/03/13 09:09:50;;;;;;;13.75;9.43;;;;;;;;;;5055321;28;20399;-62
2022/03/13 09:12:16;;;;;;;24.48;16.42;;;;;;;;;;5055378;28;20040;-62
2022/03/13 09:14:41;;;;;;;12.13;7.60;;;;;;;;;;5055239;28;20463;-61
2022/03/13 09:17:08;;;;;;;10.95;6.85;;;;;;;;;;5055222;28;20031;-62
2022/03/13 09:19:34;;;;;;;12.40;8.38;;;;;;;;;;5055136;28;20024;-62
2022/03/13 09:21:59;;;;;;;9.50;6.63;;;;;;;;;;5055101;28;20032;-62
2022/03/13 09:24:24;;;;;;;9.98;6.32;;;;;;;;;;5054597;28;20041;-62
2022/03/13 09:26:50;;;;;;;13.82;9.73;;;;;;;;;;5055376;28;20090;-62
2022/03/13 09:29:16;;;;;;;11.63;7.55;;;;;;;;;;5054653;28;20091;-62
2022/03/13 09:31:41;;;;;;;13.02;7.88;;;;;;;;;;5054908;28;20387;-62
2022/03/13 09:34:07;;;;;;;20.52;15.52;;;;;;;;;;5054425;28;20017;-62
2022/03/13 09:36:36;;;;;;;28.65;19.60;;;;;;;;;;5055284;28;20025;-62
2022/03/13 09:39:05;;;;;;;17.25;12.65;;;;;;;;;;5054927;28;20025;-62
2022/03/13 09:41:30;;;;;;;8.88;6.47;;;;;;;;;;5054801;28;20036;-62
2022/03/13 09:43:56;;;;;;;10.52;6.93;;;;;;;;;;5054774;28;20024;-61
2022/03/13 09:46:21;;;;;;;11.43;6.50;;;;;;;;;;5053550;28;20079;-61
2022/03/13 09:48:50;;;;;;;8.15;6.05;;;;;;;;;;5054625;28;20075;-62
2022/03/13 09:51:16;;;;;;;6.32;5.05;;;;;;;;;;5054664;28;20039;-62
2022/03/13 09:53:41;;;;;;;9.60;6.65;;;;;;;;;;5054069;28;20028;-62
2022/03/13 09:56:07;;;;;;;7.97;5.82;;;;;;;;;;5053663;28;20029;-62
2022/03/13 09:58:32;;;;;;;8.25;5.93;;;;;;;;;;5053506;28;20036;-62
2022/03/13 10:01:00;;;;;;;19.63;9.80;;;;;;;;;;5049826;28;20112;-62
2022/03/13 10:03:26;;;;;;;13.90;9.07;;;;;;;;;;5045047;28;20467;-63
2022/03/13 10:05:53;;;;;;;11.98;7.80;;;;;;;;;;5033521;28;20040;-61
2022/03/13 10:08:20;;;;;;;10.02;6.40;;;;;;;;;;5034777;28;20024;-61
2022/03/13 10:10:47;;;;;;;6.88;5.32;;;;;;;;;;5034547;28;20025;-64
2022/03/13 10:13:16;;;;;;;7.22;5.80;;;;;;;;;;5034605;28;20021;-65
2022/03/13 10:15:48;;;;;;;7.55;5.65;;;;;;;;;;5034609;28;20037;-65
2022/03/13 10:18:20;;;;;;;10.95;6.25;;;;;;;;;;5034523;28;20033;-66
2022/03/13 10:20:47;;;;;;;7.97;5.82;;;;;;;;;;5039706;28;20021;-65
2022/03/13 10:23:16;;;;;;;10.48;7.10;;;;;;;;;;5036736;28;20025;-65
2022/03/13 10:25:42;;;;;;;8.63;5.63;;;;;;;;;;5034464;28;20480;-65
2022/03/13 10:28:14;;;;;;;7.38;5.60;;;;;;;;;;5034074;28;20029;-65
2022/03/13 10:30:40;;;;;;;7.85;5.72;;;;;;;;;;5034945;28;20403;-65
2022/03/13 10:33:09;;;;;;;8.57;5.00;;;;;;;;;;5034279;28;20028;-64
2022/03/13 10:35:35;;;;;;;6.38;5.20;;;;;;;;;;5034101;28;20030;-65
2022/03/13 10:38:02;;;;;;;9.52;5.78;;;;;;;;;;5034242;28;20025;-65
2022/03/13 10:40:33;;;;;;;7.93;6.05;;;;;;;;;;5033441;28;20021;-66
2022/03/13 10:43:03;;;;;;;5.70;4.88;;;;;;;;;;5033858;28;20531;-66
2022/03/13 10:45:36;;;;;;;9.68;7.38;;;;;;;;;;5033014;28;20423;-67
2022/03/13 10:48:15;;;;;;;11.93;8.20;;;;;;;;;;5033853;28;20021;-66
2022/03/13 10:50:45;;;;;;;9.63;6.55;;;;;;;;;;5034087;28;20407;-67
2022/03/13 10:53:14;;;;;;;11.45;6.05;;;;;;;;;;5043880;28;20043;-67
2022/03/13 10:55:41;;;;;;;9.27;6.45;;;;;;;;;;5053964;28;20025;-66
2022/03/13 10:58:07;;;;;;;12.27;6.97;;;;;;;;;;5053486;28;20071;-67
2022/03/13 11:00:34;;;;;;;9.23;5.60;;;;;;;;;;5053584;28;20013;-66
2022/03/13 11:03:12;;;;;;;9.68;6.15;;;;;;;;;;5053416;28;20439;-65
2022/03/13 11:05:39;;;;;;;13.35;9.88;;;;;;;;;;5053525;28;20083;-66
2022/03/13 11:08:04;;;;;;;23.85;15.75;;;;;;;;;;5053311;28;20021;-66
2022/03/13 11:10:30;;;;;;;9.38;6.10;;;;;;;;;;5053533;28;20426;-66
2022/03/13 11:12:57;;;;;;;6.80;5.05;;;;;;;;;;5053201;28;20021;-66
2022/03/13 11:15:27;;;;;;;7.18;5.45;;;;;;;;;;5053537;28;20443;-66
2022/03/13 11:17:54;;;;;;;12.95;8.73;;;;;;;;;;5053502;28;20167;-67
2022/03/13 11:20:20;;;;;;;9.23;6.70;;;;;;;;;;5041218;28;20018;-66
2022/03/13 11:22:46;;;;;;;9.05;6.10;;;;;;;;;;5047468;28;20395;-67
2022/03/13 11:25:12;;;;;;;9.95;6.40;;;;;;;;;;5052830;28;20057;-64
2022/03/13 11:27:39;;;;;;;8.13;5.70;;;;;;;;;;5053343;28;20037;-70
2022/03/13 11:30:06;;;;;;;23.98;10.98;;;;;;;;;;5053107;28;20029;-70
2022/03/13 11:32:35;;;;;;;9.30;5.72;;;;;;;;;;5053305;28;20068;-71
2022/03/13 11:35:13;;;;;;;9.85;7.78;;;;;;;;;;5053428;28;20024;-70
2022/03/13 11:37:39;;;;;;;7.47;5.40;;;;;;;;;;5051981;28;20362;-64
2022/03/13 11:40:07;;;;;;;5.05;4.55;;;;;;;;;;5052888;28;20426;-64
2022/03/13 11:42:49;;;;;;;13.73;10.82;;;;;;;;;;5053052;28;20041;-64
2022/03/13 11:45:41;;;;;;;14.80;11.48;;;;;;;;;;5053210;28;20036;-65
2022/03/13 11:48:19;;;;;;;13.02;10.27;;;;;;;;;;5052697;28;20052;-65
2022/03/13 11:50:48;;;;;;;11.85;9.52;;;;;;;;;;5053250;28;20376;-65
2022/03/13 11:53:21;;;;;;;4.28;3.88;;;;;;;;;;5056845;28;20444;-66
2022/03/13 11:56:04;;;;;;;7.38;6.38;;;;;;;;;;5055670;28;20501;-66
2022/03/13 11:58:49;;;;;;;9.75;8.48;;;;;;;;;;5056993;28;20029;-65
2022/03/13 12:01:20;;;;;;;9.23;7.32;;;;;;;;;;5055758;28;20124;-65
2022/03/13 12:04:07;;;;;;;13.07;8.90;;;;;;;;;;5057132;28;20036;-65
2022/03/13 12:06:41;;;;;;;5.78;4.28;;;;;;;;;;5052255;28;20470;-65
2022/03/13 12:09:07;;;;;;;8.20;6.40;;;;;;;;;;5056652;28;20123;-65
2022/03/13 12:11:38;;;;;;;10.00;5.47;;;;;;;;;;5055286;28;20090;-65
2022/03/13 12:14:08;;;;;;;8.63;5.85;;;;;;;;;;5054022;28;20033;-65
2022/03/13 12:16:36;;;;;;;13.00;7.32;;;;;;;;;;5055576;28;20017;-64
2022/03/13 12:19:03;;;;;;;10.82;6.47;;;;;;;;;;5056530;28;20437;-65
2022/03/13 12:21:29;;;;;;;11.18;7.75;;;;;;;;;;5056464;28;20028;-65
2022/03/13 12:23:58;;;;;;;13.65;7.97;;;;;;;;;;5056301;28;20036;-65
2022/03/13 12:26:27;;;;;;;10.93;8.02;;;;;;;;;;5056617;28;20116;-64
2022/03/13 12:28:57;;;;;;;21.25;11.30;;;;;;;;;;5056682;28;20112;-65
2022/03/13 12:31:22;;;;;;;14.15;10.23;;;;;;;;;;5056381;28;20024;-64
2022/03/13 12:33:49;;;;;;;13.68;8.52;;;;;;;;;;5056628;28;20021;-65
2022/03/13 12:36:15;;;;;;;12.30;8.38;;;;;;;;;;5056381;28;20017;-64
2022/03/13 12:38:45;;;;;;;59.85;24.60;;;;;;;;;;5056383;28;20463;-64
2022/03/13 12:41:11;;;;;;;14.73;9.23;;;;;;;;;;5056585;28;20028;-65
2022/03/13 12:43:52;;;;;;;13.20;9.13;;;;;;;;;;5056588;28;20467;-64
2022/03/13 12:46:18;;;;;;;;;;;;;;;;;;5056907;28;20029;-64
2022/03/13 12:48:54;;;;;;;16.58;8.82;;;;;;;;;;5055920;28;19908;-64
2022/03/13 12:51:35;;;;;;;11.48;7.45;;;;;;;;;;5056184;28;20037;-64
2022/03/13 12:54:13;;;;;;;15.98;10.10;;;;;;;;;;5056319;28;20087;-65
2022/03/13 12:56:45;;;;;;;14.75;8.80;;;;;;;;;;5054784;28;20368;-65
2022/03/13 12:59:29;;;;;;;19.20;14.25;;;;;;;;;;5056012;28;20036;-64
2022/03/13 13:02:09;;;;;;;13.93;8.65;;;;;;;;;;5056188;28;20037;-64
2022/03/13 13:04:36;;;;;;;72.80;30.15;;;;;;;;;;5055371;28;20044;-64
2022/03/13 13:07:04;;;;;;;14.05;9.75;;;;;;;;;;5055889;28;20360;-65
2022/03/13 13:09:32;;;;;;;13.18;8.93;;;;;;;;;;5055862;28;20115;-65
2022/03/13 13:11:58;;;;;;;12.18;8.07;;;;;;;;;;5055496;28;20032;-65
2022/03/13 13:14:27;;;;;;;13.45;9.50;;;;;;;;;;5055578;28;20489;-65
2022/03/13 13:16:55;;;;;;;15.63;9.63;;;;;;;;;;5055630;28;20371;-65
2022/03/13 13:19:20;;;;;;;12.90;9.25;;;;;;;;;;5055559;28;20108;-65
2022/03/13 13:21:59;;;;;;;13.18;8.52;;;;;;;;;;5055417;28;20033;-64
2022/03/13 13:24:28;;;;;;;13.77;9.27;;;;;;;;;;5054750;28;20057;-65
2022/03/13 13:26:54;;;;;;;13.20;9.10;;;;;;;;;;5055704;28;20058;-65
2022/03/13 13:29:32;;;;;;;18.30;11.63;;;;;;;;;;5054225;28;20021;-64
2022/03/13 13:32:16;;;;;;;16.63;11.05;;;;;;;;;;5055288;28;20078;-65
2022/03/13 13:34:44;;;;;;;18.98;10.65;;;;;;;;;;5055134;28;20426;-65
2022/03/13 13:37:09;;;;;;;19.58;10.77;;;;;;;;;;5054185;28;20116;-65
2022/03/13 13:39:35;;;;;;;13.70;9.13;;;;;;;;;;5055328;28;20108;-65
2022/03/13 13:42:02;;;;;;;13.05;8.90;;;;;;;;;;5055419;28;20365;-64
2022/03/13 13:44:31;;;;;;;18.63;9.77;;;;;;;;;;5055281;28;20040;-65
2022/03/13 13:47:06;;;;;;;16.73;9.32;;;;;;;;;;5055144;28;20159;-64
2022/03/13 13:49:32;;;;;;;16.38;10.85;;;;;;;;;;5055012;28;20044;-65
2022/03/13 13:52:10;;;;;;;13.02;9.50;;;;;;;;;;5055098;28;20078;-65
2022/03/13 13:54:36;;;;;;;12.38;8.50;;;;;;;;;;5055135;28;20052;-65
2022/03/13 13:57:02;;;;;;;16.25;9.20;;;;;;;;;;5054938;28;20443;-64
2022/03/13 13:59:30;;;;;;;28.55;16.10;;;;;;;;;;5054714;28;20391;-65
2022/03/13 14:02:02;;;;;;;10.77;7.72;;;;;;;;;;5053803;28;20021;-65
2022/03/13 14:04:28;;;;;;;11.27;7.93;;;;;;;;;;5054789;28;20041;-65
2022/03/13 14:06:54;;;;;;;21.60;12.30;;;;;;;;;;5054643;28;20025;-65
2022/03/13 14:09:21;;;;;;;128.48;52.30;;;;;;;;;;5053196;28;20490;-65
2022/03/13 14:11:48;;;;;;;18.27;11.95;;;;;;;;;;5054563;28;20017;-65
2022/03/13 14:14:14;;;;;;;15.48;10.30;;;;;;;;;;5053941;28;20029;-65
2022/03/13 14:16:39;;;;;;;19.48;11.63;;;;;;;;;;5054325;28;20401;-65
2022/03/13 14:19:06;;;;;;;13.65;8.90;;;;;;;;;;5054444;28;20107;-65
2022/03/13 14:21:33;;;;;;;12.23;8.85;;;;;;;;;;5053087;28;20471;-65
2022/03/13 14:23:59;;;;;;;11.98;7.85;;;;;;;;;;5054360;28;20025;-64
2022/03/13 14:26:24;;;;;;;10.95;8.13;;;;;;;;;;5054245;28;20494;-65
2022/03/13 14:28:50;;;;;;;11.05;7.00;;;;;;;;;;5052875;28;20033;-65